Time;durP1;ratioP1;P1;durP2;ratioP2;P2;SDS_P1;SDS_P2;PMS_P1;PMS_P2;Temp;Humidity;BMP_temperature;BMP_pressure;BME280_temperature;BME280_humidity;BME280_pressure;Samples;Min_cycle;Max_cycle;Signal;HPM_P1;HPM_P2
2023/10/06 00:01:42;;;;;;;17.27;8.15;;;6.40;99.90;;;;;;5047860;28;20135;-69
2023/10/06 00:04:09;;;;;;;17.25;8.52;;;6.50;99.90;;;;;;5048653;28;20037;-69
2023/10/06 00:06:38;;;;;;;15.93;8.38;;;6.50;99.90;;;;;;5047776;28;20032;-69
2023/10/06 00:09:06;;;;;;;15.75;8.23;;;6.60;99.90;;;;;;5048458;28;20145;-69
2023/10/06 00:11:32;;;;;;;16.95;8.15;;;6.60;99.90;;;;;;5046705;28;20460;-69
2023/10/06 00:14:07;;;;;;;16.40;7.97;;;6.50;99.90;;;;;;5048177;28;20184;-69
2023/10/06 00:16:40;;;;;;;15.98;7.72;;;6.40;99.90;;;;;;5044963;28;20027;-69
2023/10/06 00:19:15;;;;;;;17.27;8.10;;;6.40;99.90;;;;;;5048442;28;20481;-69
2023/10/06 00:21:45;;;;;;;18.20;8.55;;;6.30;99.90;;;;;;5047250;28;20534;-69
2023/10/06 00:24:11;;;;;;;17.15;8.43;;;6.30;99.90;;;;;;5048183;28;20166;-69
2023/10/06 00:26:37;;;;;;;16.15;8.15;;;6.40;99.90;;;;;;5047241;28;20488;-69
2023/10/06 00:29:09;;;;;;;16.13;7.57;;;6.30;99.90;;;;;;5048226;28;20028;-69
2023/10/06 00:31:35;;;;;;;17.90;7.80;;;6.30;99.90;;;;;;5047533;28;20032;-69
2023/10/06 00:34:01;;;;;;;35.42;7.70;;;6.20;99.90;;;;;;5048182;28;20024;-69
2023/10/06 00:36:29;;;;;;;26.63;7.50;;;6.20;99.90;;;;;;5047816;28;20033;-69
2023/10/06 00:38:55;;;;;;;32.03;7.45;;;6.20;99.90;;;;;;5046859;28;20017;-69
2023/10/06 00:41:21;;;;;;;11.68;6.65;;;6.20;99.90;;;;;;5047998;28;20024;-69
2023/10/06 00:43:49;;;;;;;16.15;6.65;;;6.10;99.90;;;;;;5045873;28;20037;-69
2023/10/06 00:46:16;;;;;;;15.32;7.57;;;6.00;99.90;;;;;;5047875;28;20094;-69
2023/10/06 00:48:53;;;;;;;13.73;7.47;;;6.00;99.90;;;;;;5047181;28;20055;-70
2023/10/06 00:51:19;;;;;;;11.10;6.93;;;6.00;99.90;;;;;;5047938;28;20041;-69
2023/10/06 00:53:46;;;;;;;11.30;6.97;;;6.00;99.90;;;;;;5047155;28;20193;-69
2023/10/06 00:56:15;;;;;;;13.32;6.60;;;5.90;99.90;;;;;;5047920;28;20072;-69
2023/10/06 00:58:41;;;;;;;13.27;6.93;;;5.80;99.90;;;;;;5047143;28;20070;-69
2023/10/06 01:01:17;;;;;;;13.40;6.85;;;5.70;99.90;;;;;;5030684;28;20494;-69
2023/10/06 01:03:44;;;;;;;14.65;7.22;;;5.70;99.90;;;;;;5027230;28;20029;-69
2023/10/06 01:06:15;;;;;;;14.65;7.28;;;5.60;99.90;;;;;;5027866;28;20040;-69
2023/10/06 01:08:45;;;;;;;12.80;6.72;;;5.60;99.90;;;;;;5025841;28;20076;-69
2023/10/06 01:11:11;;;;;;;;;;;5.60;99.90;;;;;;5028267;28;20034;-69
2023/10/06 01:13:52;;;;;;;11.88;6.57;;;5.60;99.90;;;;;;5027198;28;19915;-69
2023/10/06 01:16:17;;;;;;;10.90;5.00;;;5.60;99.90;;;;;;5041940;28;20123;-69
2023/10/06 01:18:43;;;;;;;12.80;6.68;;;5.60;99.90;;;;;;5047023;28;20530;-69
2023/10/06 01:21:17;;;;;;;16.05;7.35;;;5.70;99.90;;;;;;5051289;28;20499;-70
2023/10/06 01:23:46;;;;;;;15.63;7.88;;;5.70;99.90;;;;;;5050683;28;20481;-70
2023/10/06 01:26:13;;;;;;;15.80;7.13;;;5.80;99.90;;;;;;5051201;28;20530;-70
2023/10/06 01:28:45;;;;;;;16.48;7.68;;;5.80;99.90;;;;;;5050823;28;20692;-69
2023/10/06 01:31:12;;;;;;;17.05;7.50;;;5.80;99.90;;;;;;5049786;28;20074;-69
2023/10/06 01:33:38;;;;;;;15.52;8.05;;;5.70;99.90;;;;;;5049285;28;20057;-69
2023/10/06 01:36:13;;;;;;;18.17;8.07;;;5.60;99.90;;;;;;5051195;28;20071;-69
2023/10/06 01:38:41;;;;;;;19.17;8.20;;;5.60;99.90;;;;;;5050229;28;20045;-69
2023/10/06 01:41:07;;;;;;;17.92;8.05;;;5.60;99.90;;;;;;5051305;28;20021;-69
2023/10/06 01:43:33;;;;;;;16.23;7.63;;;5.70;99.90;;;;;;5050014;28;20040;-69
2023/10/06 01:45:59;;;;;;;18.35;7.70;;;5.60;99.90;;;;;;5050395;28;20025;-69
2023/10/06 01:48:29;;;;;;;18.02;7.05;;;5.50;99.90;;;;;;5051212;28;20354;-69
2023/10/06 01:50:55;;;;;;;21.05;7.35;;;5.40;99.90;;;;;;5050388;28;20090;-70
2023/10/06 01:53:20;;;;;;;13.55;6.78;;;5.40;99.90;;;;;;5051146;28;20032;-69
2023/10/06 01:55:52;;;;;;;13.98;7.20;;;5.50;99.90;;;;;;5050160;28;20036;-69
2023/10/06 01:58:18;;;;;;;12.30;6.53;;;5.40;99.90;;;;;;5050671;28;20051;-69
2023/10/06 02:00:48;;;;;;;13.90;6.80;;;5.40;99.90;;;;;;5049994;28;20453;-69
2023/10/06 02:03:17;;;;;;;50.47;7.43;;;5.30;99.90;;;;;;5050909;28;20032;-69
2023/10/06 02:05:43;;;;;;;24.70;6.53;;;5.30;99.90;;;;;;5049942;28;20256;-69
2023/10/06 02:08:10;;;;;;;61.72;8.30;;;5.20;99.90;;;;;;5050822;28;20028;-69
2023/10/06 02:10:37;;;;;;;13.30;6.90;;;5.00;99.90;;;;;;5049237;28;20037;-69
2023/10/06 02:13:05;;;;;;;12.25;6.72;;;5.00;99.90;;;;;;5050000;28;20033;-69
2023/10/06 02:15:32;;;;;;;54.60;6.90;;;5.00;99.90;;;;;;5050553;28;20024;-69
2023/10/06 02:17:57;;;;;;;64.63;6.70;;;5.10;99.90;;;;;;5049420;28;20607;-69
2023/10/06 02:22:51;;;;;;;17.45;6.70;;;5.20;99.90;;;;;;5049672;28;20036;-69
2023/10/06 02:25:18;;;;;;;12.15;6.63;;;5.10;99.90;;;;;;5047404;28;20029;-69
2023/10/06 02:27:46;;;;;;;11.95;6.32;;;5.10;99.90;;;;;;5049620;28;20052;-69
2023/10/06 02:30:15;;;;;;;33.55;6.35;;;5.00;99.90;;;;;;5050112;28;20116;-69
2023/10/06 02:32:40;;;;;;;35.78;6.47;;;4.90;99.90;;;;;;5049777;28;20036;-69
2023/10/06 02:35:07;;;;;;;24.23;5.97;;;4.90;99.90;;;;;;5050371;28;20032;-69
2023/10/06 02:37:33;;;;;;;17.38;6.60;;;5.00;99.90;;;;;;5049463;28;20065;-68
2023/10/06 02:39:59;;;;;;;15.75;6.10;;;5.00;99.90;;;;;;5049416;28;20603;-69
2023/10/06 02:42:25;;;;;;;12.15;6.53;;;4.90;99.90;;;;;;5050101;28;20094;-69
2023/10/06 02:44:53;;;;;;;12.88;6.50;;;4.80;99.90;;;;;;5049328;28;20206;-69
2023/10/06 02:47:20;;;;;;;13.65;6.90;;;4.70;99.90;;;;;;5050012;28;20032;-69
2023/10/06 02:49:48;;;;;;;16.30;7.47;;;4.70;99.90;;;;;;5049134;28;20115;-69
2023/10/06 02:52:20;;;;;;;16.55;7.93;;;4.70;99.90;;;;;;5049967;28;20036;-69
2023/10/06 02:54:50;;;;;;;17.05;7.47;;;4.70;99.90;;;;;;5049078;28;20112;-69
2023/10/06 02:57:20;;;;;;;35.35;7.75;;;4.80;99.90;;;;;;5049912;28;20033;-69
2023/10/06 02:59:48;;;;;;;16.60;8.35;;;4.80;99.90;;;;;;5048740;28;20827;-69
2023/10/06 03:02:16;;;;;;;18.23;8.18;;;4.80;99.90;;;;;;5046525;28;20541;-69
2023/10/06 03:04:43;;;;;;;18.77;7.32;;;4.80;99.90;;;;;;5029173;28;20134;-69
2023/10/06 03:07:15;;;;;;;18.02;7.55;;;4.80;99.90;;;;;;5029720;28;20030;-69
2023/10/06 03:09:47;;;;;;;17.23;7.57;;;4.80;99.90;;;;;;5029546;28;20080;-70
2023/10/06 03:14:59;;;;;;;14.15;6.35;;;4.80;99.90;;;;;;5032172;28;20036;-69
2023/10/06 03:17:25;;;;;;;86.22;7.38;;;4.80;99.90;;;;;;5049597;28;20067;-69
2023/10/06 03:20:11;;;;;;;12.02;6.25;;;4.90;99.90;;;;;;5048682;28;20053;-69
2023/10/06 03:22:38;;;;;;;11.50;6.05;;;4.80;99.90;;;;;;5049334;28;20485;-69
2023/10/06 03:25:15;;;;;;;11.63;5.93;;;4.80;99.90;;;;;;5047040;28;20029;-69
2023/10/06 03:27:41;;;;;;;15.43;6.30;;;4.70;99.90;;;;;;5049241;28;20082;-69
2023/10/06 03:30:11;;;;;;;17.60;6.50;;;4.70;99.90;;;;;;5048567;28;20025;-69
2023/10/06 03:32:40;;;;;;;15.52;5.75;;;4.70;99.90;;;;;;5049378;28;20553;-69
2023/10/06 03:35:54;;;;;;;30.98;6.10;;;4.70;99.90;;;;;;5048538;28;20044;-71
2023/10/06 03:37:53;;;;;;;41.63;6.25;;;4.70;99.90;;;;;;5040724;28;20048;-71
2023/10/06 03:40:43;;;;;;;20.08;5.97;;;4.70;99.90;;;;;;5049222;28;20033;-71
2023/10/06 03:43:12;;;;;;;33.40;7.00;;;4.70;99.90;;;;;;5048176;28;20071;-72
2023/10/06 03:45:40;;;;;;;18.23;6.43;;;4.60;99.90;;;;;;5049241;28;20056;-72
2023/10/06 03:48:11;;;;;;;13.43;6.43;;;4.60;99.90;;;;;;5048272;28;20025;-72
2023/10/06 03:50:41;;;;;;;13.05;6.60;;;4.50;99.90;;;;;;5048871;28;20454;-70
2023/10/06 03:53:08;;;;;;;16.05;6.53;;;4.50;99.90;;;;;;5046784;28;20504;-70
2023/10/06 03:55:45;;;;;;;13.25;6.93;;;4.40;99.90;;;;;;5048601;28;20553;-70
2023/10/06 03:58:16;;;;;;;24.35;6.47;;;4.50;99.90;;;;;;5048295;28;20029;-70
2023/10/06 04:00:48;;;;;;;61.45;6.82;;;4.50;99.90;;;;;;5048803;28;20033;-69
2023/10/06 04:03:17;;;;;;;14.55;7.28;;;4.50;99.90;;;;;;5048659;28;20037;-69
2023/10/06 04:05:44;;;;;;;21.75;6.55;;;4.50;99.90;;;;;;5048460;28;20461;-70
2023/10/06 04:08:17;;;;;;;14.38;6.43;;;4.40;99.90;;;;;;5048293;28;20029;-69
2023/10/06 04:10:57;;;;;;;14.20;6.82;;;4.40;99.90;;;;;;5048511;28;20120;-69
2023/10/06 04:13:23;;;;;;;14.23;6.50;;;4.50;99.90;;;;;;5048664;28;20071;-69
2023/10/06 04:15:49;;;;;;;16.42;6.45;;;4.50;99.90;;;;;;5047618;28;20041;-70
2023/10/06 04:18:21;;;;;;;13.32;6.75;;;4.50;99.90;;;;;;5045193;28;20032;-69
2023/10/06 04:20:46;;;;;;;15.02;6.50;;;4.50;99.90;;;;;;5047986;28;20025;-69
2023/10/06 04:23:13;;;;;;;12.40;6.43;;;4.50;99.90;;;;;;5048018;28;20041;-69
2023/10/06 04:25:41;;;;;;;11.68;6.22;;;4.30;99.90;;;;;;5048283;28;20032;-69
2023/10/06 04:28:08;;;;;;;12.93;6.30;;;4.20;99.90;;;;;;5047365;28;20642;-69
2023/10/06 04:30:37;;;;;;;11.38;6.32;;;4.20;99.90;;;;;;5048086;28;20478;-69
2023/10/06 04:33:04;;;;;;;13.82;6.70;;;4.10;99.90;;;;;;5047303;28;20385;-69
2023/10/06 04:35:32;;;;;;;13.63;7.30;;;4.20;99.90;;;;;;5048187;28;20385;-69
2023/10/06 04:37:59;;;;;;;12.27;6.55;;;4.20;99.90;;;;;;5046830;28;20060;-69
2023/10/06 04:40:25;;;;;;;12.52;7.25;;;4.20;99.90;;;;;;5047534;28;20096;-69
2023/10/06 04:42:51;;;;;;;15.13;7.20;;;4.20;99.90;;;;;;5047235;28;20029;-69
2023/10/06 04:45:16;;;;;;;15.63;7.70;;;4.20;99.90;;;;;;5047819;28;20041;-69
2023/10/06 04:47:42;;;;;;;106.65;7.75;;;4.10;99.90;;;;;;5048071;28;20166;-69
2023/10/06 04:50:11;;;;;;;11.60;6.47;;;4.20;99.90;;;;;;5047290;28;20100;-69
2023/10/06 04:52:38;;;;;;;13.15;6.13;;;4.10;99.90;;;;;;5047823;28;20033;-69
2023/10/06 04:55:10;;;;;;;11.57;6.20;;;4.10;99.90;;;;;;5050899;28;20029;-69
2023/10/06 04:57:36;;;;;;;311.55;9.57;;;4.10;99.90;;;;;;5052259;28;20025;-69
2023/10/06 05:00:03;;;;;;;41.67;5.60;;;4.10;99.90;;;;;;5051328;28;20074;-69
2023/10/06 05:02:34;;;;;;;9.70;5.90;;;4.00;99.90;;;;;;5050468;28;20540;-69
2023/10/06 05:05:00;;;;;;;51.65;6.03;;;3.90;99.90;;;;;;5051220;28;20552;-69
2023/10/06 05:07:26;;;;;;;50.90;6.47;;;3.90;99.90;;;;;;5051773;28;20484;-69
2023/10/06 05:09:55;;;;;;;57.85;5.93;;;3.90;99.90;;;;;;5050097;28;20040;-69
2023/10/06 05:12:23;;;;;;;7.65;4.70;;;3.90;99.90;;;;;;5031749;28;20548;-69
2023/10/06 05:14:49;;;;;;;34.25;4.93;;;3.90;99.90;;;;;;5034769;28;20033;-69
2023/10/06 05:17:16;;;;;;;8.10;5.00;;;3.90;99.90;;;;;;5051586;28;20033;-69
2023/10/06 05:19:42;;;;;;;9.35;4.85;;;4.00;99.90;;;;;;5052084;28;20369;-69
2023/10/06 05:22:08;;;;;;;9.07;5.07;;;3.90;99.90;;;;;;5051080;28;20642;-69
2023/10/06 05:24:34;;;;;;;9.25;5.22;;;3.90;99.90;;;;;;5051757;28;20033;-69
2023/10/06 05:27:02;;;;;;;9.65;5.60;;;3.90;99.90;;;;;;5050925;28;20029;-69
2023/10/06 05:29:28;;;;;;;10.68;5.75;;;3.90;99.90;;;;;;5051464;28;20366;-69
2023/10/06 05:31:54;;;;;;;10.70;5.80;;;3.90;99.90;;;;;;5050876;28;20035;-69
2023/10/06 05:34:19;;;;;;;10.35;5.82;;;3.90;99.90;;;;;;5051597;28;20025;-69
2023/10/06 05:36:45;;;;;;;10.50;5.75;;;4.00;99.90;;;;;;5051291;28;20084;-69
2023/10/06 05:39:13;;;;;;;9.93;5.72;;;4.00;99.90;;;;;;5050745;28;20087;-69
2023/10/06 05:41:44;;;;;;;10.50;6.03;;;4.00;99.90;;;;;;5051315;28;20397;-69
2023/10/06 05:44:09;;;;;;;11.07;6.05;;;4.10;99.90;;;;;;5049134;28;20066;-70
2023/10/06 05:46:35;;;;;;;10.35;5.80;;;4.10;99.90;;;;;;5050923;28;20529;-69
2023/10/06 05:49:03;;;;;;;10.23;5.80;;;4.20;99.90;;;;;;5050387;28;20511;-69
2023/10/06 05:51:33;;;;;;;11.07;6.20;;;4.20;99.90;;;;;;5049859;28;20124;-69
2023/10/06 05:53:58;;;;;;;10.80;5.80;;;4.20;99.90;;;;;;5050433;28;20036;-69
2023/10/06 05:56:26;;;;;;;9.35;5.28;;;4.20;99.90;;;;;;5051211;28;20627;-70
2023/10/06 05:58:53;;;;;;;10.63;5.72;;;4.20;99.90;;;;;;5050661;28;20025;-69
2023/10/06 06:01:20;;;;;;;10.93;5.97;;;4.20;99.90;;;;;;5050878;28;20111;-69
2023/10/06 06:03:46;;;;;;;11.43;5.95;;;4.20;99.90;;;;;;5049456;28;20067;-70
2023/10/06 06:06:14;;;;;;;11.15;6.20;;;4.30;99.90;;;;;;5049466;28;20025;-69
2023/10/06 06:08:43;;;;;;;10.07;5.70;;;4.20;99.90;;;;;;5050849;28;20033;-69
2023/10/06 06:11:09;;;;;;;11.40;6.38;;;4.20;99.90;;;;;;5049871;28;20125;-69
2023/10/06 06:13:38;;;;;;;10.85;6.40;;;4.30;99.90;;;;;;5050904;28;20111;-69
2023/10/06 06:16:07;;;;;;;13.20;6.82;;;4.30;99.90;;;;;;5049997;28;20036;-70
2023/10/06 06:18:34;;;;;;;10.98;5.85;;;4.40;99.90;;;;;;5050651;28;20078;-69
2023/10/06 06:21:02;;;;;;;11.10;6.60;;;4.50;99.90;;;;;;5046729;28;20025;-70
2023/10/06 06:23:33;;;;;;;11.68;6.80;;;4.50;99.90;;;;;;5050660;28;20025;-69
2023/10/06 06:26:00;;;;;;;12.40;6.47;;;4.60;99.90;;;;;;5049602;28;20037;-69
2023/10/06 06:28:25;;;;;;;10.70;6.50;;;4.60;99.90;;;;;;5050464;28;20550;-70
2023/10/06 06:30:51;;;;;;;12.45;7.15;;;4.80;99.90;;;;;;5050376;28;20094;-70
2023/10/06 06:33:22;;;;;;;12.30;7.13;;;4.80;99.90;;;;;;5048394;28;20037;-70
2023/10/06 06:35:49;;;;;;;12.32;6.55;;;4.80;99.90;;;;;;5049876;28;20418;-70
2023/10/06 06:38:17;;;;;;;10.90;6.70;;;4.80;99.90;;;;;;5049364;28;20069;-69
2023/10/06 06:40:43;;;;;;;12.95;7.07;;;4.80;99.90;;;;;;5050240;28;20039;-70
2023/10/06 06:43:12;;;;;;;12.30;7.13;;;4.90;99.90;;;;;;5049253;28;20033;-70
2023/10/06 06:45:41;;;;;;;12.00;6.90;;;4.90;99.90;;;;;;5050188;28;20107;-70
2023/10/06 06:48:13;;;;;;;11.90;7.03;;;4.90;99.90;;;;;;5049234;28;20025;-70
2023/10/06 06:50:42;;;;;;;13.93;7.20;;;4.90;99.90;;;;;;5050046;28;20029;-69
2023/10/06 06:53:08;;;;;;;13.65;7.57;;;5.10;99.90;;;;;;5049223;28;20102;-70
2023/10/06 06:55:34;;;;;;;13.35;7.50;;;5.20;99.90;;;;;;5049932;28;20041;-70
2023/10/06 06:58:05;;;;;;;13.68;7.30;;;5.30;99.90;;;;;;5049102;28;20111;-70
2023/10/06 07:00:31;;;;;;;14.10;8.10;;;5.40;99.90;;;;;;5050022;28;20484;-70
2023/10/06 07:02:58;;;;;;;14.10;7.35;;;5.60;99.90;;;;;;5049207;28;20041;-70
2023/10/06 07:05:24;;;;;;;15.98;7.90;;;5.70;99.90;;;;;;5048338;28;20029;-70
2023/10/06 07:07:51;;;;;;;13.98;6.97;;;5.80;99.90;;;;;;5049659;28;20559;-71
2023/10/06 07:10:22;;;;;;;17.13;7.30;;;5.90;99.90;;;;;;5048945;28;20032;-70
2023/10/06 07:12:49;;;;;;;16.00;7.82;;;6.00;99.90;;;;;;5049646;28;20492;-71
2023/10/06 07:15:15;;;;;;;15.07;7.88;;;6.10;99.90;;;;;;5048596;28;20331;-71
2023/10/06 07:17:45;;;;;;;14.25;8.02;;;6.20;99.90;;;;;;5047846;28;20039;-71
2023/10/06 07:20:14;;;;;;;13.98;8.30;;;6.30;99.90;;;;;;5028862;28;20022;-71
2023/10/06 07:22:46;;;;;;;15.25;8.02;;;6.40;99.90;;;;;;5029479;28;20118;-71
2023/10/06 07:25:15;;;;;;;16.88;7.63;;;6.40;99.90;;;;;;5028796;28;20048;-71
2023/10/06 07:27:45;;;;;;;14.45;7.80;;;6.60;99.90;;;;;;5029456;28;20029;-71
2023/10/06 07:30:14;;;;;;;16.60;8.82;;;6.70;99.90;;;;;;5028993;28;20038;-71
2023/10/06 07:32:41;;;;;;;16.42;8.82;;;6.90;99.90;;;;;;5029382;28;20042;-71
2023/10/06 07:35:20;;;;;;;15.55;8.10;;;7.10;99.90;;;;;;5028503;28;20052;-71
2023/10/06 07:37:48;;;;;;;15.20;8.23;;;7.20;99.90;;;;;;5027349;28;20045;-71
2023/10/06 07:40:18;;;;;;;14.85;8.75;;;7.40;99.90;;;;;;5028459;28;20061;-71
2023/10/06 07:42:52;;;;;;;16.60;8.68;;;7.50;99.90;;;;;;5029382;28;20500;-72
2023/10/06 07:45:18;;;;;;;19.90;9.55;;;7.70;99.90;;;;;;5035627;28;20342;-71
2023/10/06 07:47:45;;;;;;;18.45;9.35;;;7.90;99.90;;;;;;5048817;28;20551;-71
2023/10/06 07:50:13;;;;;;;17.80;9.30;;;8.00;99.90;;;;;;5048449;28;20033;-71
2023/10/06 07:52:40;;;;;;;20.67;9.32;;;8.30;99.90;;;;;;5048648;28;20586;-71
2023/10/06 07:55:06;;;;;;;19.00;9.13;;;8.50;99.90;;;;;;5046810;28;20481;-71
2023/10/06 07:57:33;;;;;;;14.90;8.45;;;8.60;99.90;;;;;;5048566;28;20763;-71
2023/10/06 08:00:06;;;;;;;16.48;8.90;;;8.80;99.90;;;;;;5046952;28;20043;-71
2023/10/06 08:02:39;;;;;;;20.45;8.70;;;8.90;99.90;;;;;;5048946;28;20027;-72
2023/10/06 08:05:11;;;;;;;15.57;8.52;;;9.10;99.90;;;;;;5047920;28;20025;-72
2023/10/06 08:07:38;;;;;;;14.75;8.15;;;9.30;99.90;;;;;;5048289;28;20469;-71
2023/10/06 08:10:05;;;;;;;16.02;8.32;;;9.60;99.90;;;;;;5047821;28;20495;-71
2023/10/06 08:12:33;;;;;;;13.20;7.80;;;9.60;99.90;;;;;;5048483;28;20060;-72
2023/10/06 08:15:09;;;;;;;17.08;8.23;;;9.80;99.90;;;;;;5046643;28;20053;-72
2023/10/06 08:17:38;;;;;;;14.60;7.85;;;10.00;99.90;;;;;;5048509;28;20108;-72
2023/10/06 08:20:07;;;;;;;14.35;7.40;;;10.20;99.90;;;;;;5047762;28;20032;-71
2023/10/06 08:22:33;;;;;;;18.13;7.95;;;10.40;99.90;;;;;;5047529;28;20134;-71
2023/10/06 08:25:01;;;;;;;14.70;7.63;;;10.60;99.90;;;;;;5046972;28;20115;-72
2023/10/06 08:27:27;;;;;;;15.02;7.50;;;10.80;99.90;;;;;;5048044;28;20478;-72
2023/10/06 08:29:52;;;;;;;14.73;6.90;;;11.00;99.90;;;;;;5048136;28;20025;-72
2023/10/06 08:32:19;;;;;;;20.88;8.43;;;11.30;99.90;;;;;;5047333;28;20036;-72
2023/10/06 08:34:46;;;;;;;17.85;8.13;;;11.50;99.90;;;;;;5048530;28;20122;-72
2023/10/06 08:37:12;;;;;;;22.38;9.10;;;11.80;99.90;;;;;;5045762;28;20053;-72
2023/10/06 08:39:38;;;;;;;18.30;8.15;;;12.10;99.90;;;;;;5048370;28;20033;-72
2023/10/06 08:42:08;;;;;;;20.92;8.25;;;12.30;99.90;;;;;;5046958;28;20715;-72
2023/10/06 08:44:37;;;;;;;15.55;8.52;;;12.60;99.90;;;;;;5048341;28;20072;-72
2023/10/06 08:47:03;;;;;;;21.80;8.45;;;12.80;99.90;;;;;;5047838;28;20120;-72
2023/10/06 08:49:29;;;;;;;21.08;8.38;;;12.90;99.90;;;;;;5048316;28;20029;-72
2023/10/06 08:51:57;;;;;;;17.08;7.30;;;13.10;99.90;;;;;;5048340;28;20064;-72
2023/10/06 08:54:23;;;;;;;15.95;7.32;;;13.30;99.90;;;;;;5047856;28;20100;-72
2023/10/06 08:56:49;;;;;;;23.02;7.75;;;13.50;99.90;;;;;;5048303;28;20493;-73
2023/10/06 08:59:16;;;;;;;21.08;8.02;;;13.60;99.90;;;;;;5047489;28;20025;-72
2023/10/06 09:01:45;;;;;;;22.33;8.43;;;13.80;99.90;;;;;;5048254;28;20119;-73
2023/10/06 09:04:12;;;;;;;20.98;8.35;;;14.00;99.90;;;;;;5047381;28;20105;-73
2023/10/06 09:07:12;;;;;;;20.73;7.68;;;14.20;99.90;;;;;;5048113;28;20492;-73
2023/10/06 09:09:42;;;;;;;21.25;8.13;;;14.30;99.90;;;;;;5048058;28;20086;-73
2023/10/06 09:12:24;;;;;;;;;;;14.50;99.90;;;;;;5047874;28;20033;-73
2023/10/06 09:14:54;;;;;;;16.00;7.65;;;14.70;99.90;;;;;;5046921;28;19916;-73
2023/10/06 09:17:32;;;;;;;18.75;7.68;;;14.90;99.90;;;;;;5046361;28;20186;-73
2023/10/06 09:19:59;;;;;;;21.23;8.18;;;15.10;99.90;;;;;;5028221;28;20030;-73
2023/10/06 09:22:29;;;;;;;19.13;8.90;;;15.30;99.90;;;;;;5025873;28;20418;-73
2023/10/06 09:25:04;;;;;;;24.65;8.40;;;15.50;99.90;;;;;;5028315;28;20766;-73
2023/10/06 09:27:30;;;;;;;21.77;7.95;;;15.60;99.90;;;;;;5027937;28;20025;-73
2023/10/06 09:30:00;;;;;;;18.77;7.57;;;15.60;99.90;;;;;;5027996;28;20030;-73
2023/10/06 09:32:26;;;;;;;24.45;8.02;;;15.70;99.90;;;;;;5027433;28;20053;-73
2023/10/06 09:34:57;;;;;;;21.65;7.63;;;15.80;99.90;;;;;;5028101;28;20069;-73
2023/10/06 09:37:24;;;;;;;17.83;7.28;;;15.90;99.90;;;;;;5027139;28;20053;-73
2023/10/06 09:40:15;;;;;;;18.23;7.80;;;15.90;99.90;;;;;;5027898;28;20644;-73
2023/10/06 09:42:46;;;;;;;18.27;7.72;;;16.00;99.90;;;;;;5031869;28;20377;-73
2023/10/06 09:45:15;;;;;;;19.17;7.85;;;16.20;99.90;;;;;;5037501;28;20059;-73
2023/10/06 09:47:56;;;;;;;23.00;7.78;;;16.40;99.90;;;;;;5051729;28;20024;-73
2023/10/06 09:50:22;;;;;;;;;;;16.70;99.90;;;;;;5051211;28;20030;-73
2023/10/06 09:52:49;;;;;;;19.83;8.27;;;16.80;99.90;;;;;;5050229;28;19905;-73
2023/10/06 09:55:21;;;;;;;22.88;7.30;;;16.90;99.90;;;;;;5050647;28;20111;-73
2023/10/06 09:57:50;;;;;;;19.42;7.65;;;17.10;99.90;;;;;;5051514;28;20021;-72
2023/10/06 10:00:19;;;;;;;20.30;8.35;;;17.30;99.90;;;;;;5049215;28;20033;-72
2023/10/06 10:02:50;;;;;;;18.50;7.88;;;17.20;99.90;;;;;;5049830;28;20128;-73
2023/10/06 10:05:19;;;;;;;;;;;17.30;99.90;;;;;;5050991;28;20079;-72
2023/10/06 10:07:49;;;;;;;22.25;7.15;;;17.30;99.90;;;;;;5049664;28;19936;-73
2023/10/06 10:10:22;;;;;;;21.08;8.00;;;17.20;99.90;;;;;;5050705;28;20079;-72
2023/10/06 10:13:12;;;;;;;22.95;8.13;;;17.10;99.90;;;;;;5051284;28;20067;-73
2023/10/06 10:15:44;;;;;;;16.10;7.88;;;17.30;99.90;;;;;;5051105;28;20379;-72
2023/10/06 10:18:40;;;;;;;18.20;8.18;;;17.60;99.90;;;;;;5050207;28;20697;-72
2023/10/06 10:21:09;;;;;;;18.35;7.72;;;17.80;99.90;;;;;;5049305;28;20381;-72
2023/10/06 10:23:39;;;;;;;24.58;9.18;;;17.70;99.90;;;;;;5050998;28;20028;-73
2023/10/06 10:26:28;;;;;;;17.83;7.82;;;17.50;99.90;;;;;;5050870;28;20048;-72
2023/10/06 10:29:12;;;;;;;24.65;8.55;;;17.80;99.90;;;;;;5050940;28;20121;-72
2023/10/06 10:31:50;;;;;;;20.48;8.30;;;17.80;99.90;;;;;;5050370;28;20036;-73
2023/10/06 10:34:20;;;;;;;24.50;7.65;;;17.80;99.90;;;;;;5046395;28;20025;-73
2023/10/06 10:37:05;;;;;;;24.40;8.27;;;17.80;99.90;;;;;;5050336;28;20052;-72
2023/10/06 10:39:51;;;;;;;18.90;7.53;;;17.90;99.90;;;;;;5050010;28;20079;-73
2023/10/06 10:42:37;;;;;;;21.00;8.18;;;18.00;99.90;;;;;;5049708;28;20065;-72
2023/10/06 10:45:30;;;;;;;23.02;8.32;;;18.20;99.90;;;;;;5050343;28;20037;-73
2023/10/06 10:47:58;;;;;;;24.90;8.20;;;18.20;99.90;;;;;;5050469;28;20040;-72
2023/10/06 10:50:57;;;;;;;17.95;7.35;;;18.30;99.90;;;;;;5049515;28;20040;-73
2023/10/06 10:53:23;;;;;;;21.33;7.53;;;18.40;99.90;;;;;;5048050;28;20403;-73
2023/10/06 10:55:50;;;;;;;18.67;7.82;;;18.30;99.90;;;;;;5050024;28;20037;-73
2023/10/06 10:58:49;;;;;;;17.35;7.70;;;18.40;99.90;;;;;;5049405;28;20029;-72
2023/10/06 11:01:42;;;;;;;15.88;7.55;;;18.40;99.90;;;;;;5049285;28;20044;-73
2023/10/06 11:04:21;;;;;;;18.17;7.05;;;18.40;99.90;;;;;;5050030;28;20041;-72
2023/10/06 11:06:48;;;;;;;16.98;6.90;;;18.70;99.90;;;;;;5049822;28;20025;-73
2023/10/06 11:09:58;;;;;;;15.93;5.95;;;19.00;99.90;;;;;;5048966;28;20033;-73
2023/10/06 11:12:17;;;;;;;15.48;6.78;;;19.10;99.90;;;;;;5044185;28;20119;-72
2023/10/06 11:14:43;;;;;;;12.32;6.07;;;19.10;99.90;;;;;;5049976;28;20076;-73
2023/10/06 11:17:11;;;;;;;14.27;6.22;;;19.10;99.90;;;;;;5048196;28;20041;-73
2023/10/06 11:19:38;;;;;;;20.13;7.10;;;19.20;99.90;;;;;;5049486;28;20112;-73
2023/10/06 11:22:22;;;;;;;16.05;6.88;;;19.20;99.90;;;;;;5049668;28;20033;-72
2023/10/06 11:24:50;;;;;;;15.70;6.53;;;19.00;99.90;;;;;;5048735;28;20075;-73
2023/10/06 11:27:17;;;;;;;14.93;6.57;;;18.90;99.90;;;;;;5048859;28;20025;-72
2023/10/06 11:29:45;;;;;;;17.00;7.10;;;18.80;99.90;;;;;;5048213;28;20592;-73
2023/10/06 11:32:11;;;;;;;18.10;7.13;;;18.90;99.90;;;;;;5049191;28;20504;-72
2023/10/06 11:34:37;;;;;;;14.80;7.15;;;18.70;99.90;;;;;;5049600;28;20021;-73
2023/10/06 11:37:05;;;;;;;17.25;6.85;;;18.70;99.90;;;;;;5049090;28;20379;-73
2023/10/06 11:39:31;;;;;;;16.63;7.20;;;18.90;99.90;;;;;;5048751;28;20031;-73
2023/10/06 11:42:22;;;;;;;16.75;6.50;;;18.90;99.90;;;;;;5049169;28;20029;-72
2023/10/06 11:44:48;;;;;;;19.17;6.88;;;18.80;99.90;;;;;;5049203;28;20033;-73
2023/10/06 11:47:13;;;;;;;21.40;7.15;;;18.90;99.90;;;;;;5048617;28;20032;-72
2023/10/06 11:49:55;;;;;;;15.38;6.20;;;18.90;99.90;;;;;;5049042;28;20029;-72
2023/10/06 11:52:21;;;;;;;18.65;6.28;;;18.90;99.90;;;;;;5048232;28;20036;-71
2023/10/06 11:54:47;;;;;;;14.55;6.18;;;18.90;99.90;;;;;;5048690;28;20029;-72
2023/10/06 11:57:16;;;;;;;16.23;6.43;;;19.00;99.90;;;;;;5048315;28;20068;-72
2023/10/06 11:59:53;;;;;;;19.35;6.88;;;19.20;99.90;;;;;;5048921;28;20797;-72
2023/10/06 12:02:21;;;;;;;13.88;6.25;;;19.40;99.90;;;;;;5048011;28;20044;-72
2023/10/06 12:04:48;;;;;;;15.52;5.95;;;19.50;99.90;;;;;;5048378;28;20079;-72
2023/10/06 12:07:23;;;;;;;19.20;6.20;;;19.70;99.90;;;;;;5048122;28;20040;-72
2023/10/06 12:09:50;;;;;;;16.33;6.38;;;19.80;99.90;;;;;;5048749;28;20110;-71
2023/10/06 12:12:17;;;;;;;13.50;6.22;;;19.80;99.90;;;;;;5048000;28;20033;-72
2023/10/06 12:14:44;;;;;;;14.77;6.30;;;19.80;99.90;;;;;;5048679;28;20021;-72
2023/10/06 12:17:13;;;;;;;14.23;6.43;;;19.80;99.90;;;;;;5048404;28;20397;-72
2023/10/06 12:19:42;;;;;;;16.63;5.68;;;20.40;99.90;;;;;;5048266;28;20033;-72
2023/10/06 12:22:08;;;;;;;11.95;5.18;;;20.80;99.90;;;;;;5048560;28;20109;-73
2023/10/06 12:24:33;;;;;;;16.00;5.57;;;20.60;99.90;;;;;;5047817;28;20025;-72
2023/10/06 12:26:59;;;;;;;18.95;6.45;;;20.80;99.90;;;;;;5048356;28;20366;-73
2023/10/06 12:29:25;;;;;;;14.07;5.68;;;20.50;99.20;;;;;;5047673;28;20025;-73
2023/10/06 12:31:50;;;;;;;13.70;5.68;;;20.40;99.70;;;;;;5047649;28;20374;-73
2023/10/06 12:34:16;;;;;;;14.20;5.75;;;20.70;99.90;;;;;;5045881;28;20029;-71
2023/10/06 12:36:47;;;;;;;15.70;6.22;;;20.90;99.70;;;;;;5046678;28;20086;-73
2023/10/06 12:39:16;;;;;;;16.50;6.38;;;20.90;99.90;;;;;;5048317;28;20714;-72
2023/10/06 12:41:46;;;;;;;16.33;5.80;;;20.90;98.60;;;;;;5046722;28;20052;-73
2023/10/06 12:44:13;;;;;;;16.45;5.78;;;20.80;98.40;;;;;;5048518;28;20033;-73
2023/10/06 12:46:40;;;;;;;15.95;5.95;;;21.20;98.80;;;;;;5047684;28;20044;-73
2023/10/06 12:49:06;;;;;;;17.48;5.80;;;21.70;97.60;;;;;;5048326;28;20551;-73
2023/10/06 12:51:36;;;;;;;12.27;5.50;;;21.60;97.80;;;;;;5047607;28;20040;-72
2023/10/06 12:54:03;;;;;;;12.88;5.13;;;21.50;96.90;;;;;;5048210;28;20017;-72
2023/10/06 12:56:28;;;;;;;12.75;5.78;;;21.00;94.90;;;;;;5047526;28;20102;-73
2023/10/06 12:58:54;;;;;;;15.68;5.93;;;20.80;92.90;;;;;;5047973;28;20440;-73
2023/10/06 13:01:20;;;;;;;16.08;5.88;;;20.90;94.10;;;;;;5045910;28;20097;-72
2023/10/06 13:03:46;;;;;;;16.65;6.13;;;20.90;95.30;;;;;;5047941;28;20048;-71